createdAt,value
2024-01-20T00:00:24.261Z,99.90
2024-01-20T00:02:51.325Z,99.90
2024-01-20T00:05:18.736Z,99.90
2024-01-20T00:07:46.177Z,99.90
2024-01-20T00:10:13.777Z,99.90
2024-01-20T00:12:43.446Z,99.90
2024-01-20T00:15:12.401Z,99.90
2024-01-20T00:17:41.238Z,99.90
2024-01-20T00:20:10.385Z,99.40
2024-01-20T00:22:38.000Z,98.90
2024-01-20T00:25:05.670Z,99.40
2024-01-20T00:27:32.854Z,99.90
2024-01-20T00:30:01.037Z,99.90
2024-01-20T00:32:29.471Z,99.90
2024-01-20T00:35:05.985Z,99.90
2024-01-20T00:37:37.100Z,99.90
2024-01-20T00:40:05.756Z,99.90
2024-01-20T00:42:32.853Z,99.90
2024-01-20T00:44:59.851Z,99.90
2024-01-20T00:47:26.912Z,99.90
2024-01-20T00:49:54.002Z,99.90
2024-01-20T00:52:20.990Z,99.90
2024-01-20T00:54:48.033Z,99.90
2024-01-20T00:57:15.082Z,99.90
2024-01-20T00:59:42.066Z,99.90
2024-01-20T01:02:09.162Z,99.90
2024-01-20T01:04:36.483Z,99.90
2024-01-20T01:07:04.197Z,99.90
2024-01-20T01:09:31.270Z,99.90
2024-01-20T01:11:58.539Z,99.90
2024-01-20T01:14:25.814Z,99.90
2024-01-20T01:16:53.178Z,98.90
2024-01-20T01:19:20.455Z,99.10
2024-01-20T01:21:47.400Z,99.90
2024-01-20T01:24:14.382Z,99.90
2024-01-20T01:26:42.115Z,99.90
2024-01-20T01:29:09.275Z,99.90
2024-01-20T01:31:36.352Z,99.90
2024-01-20T01:34:03.598Z,99.90
2024-01-20T01:36:30.588Z,99.90
2024-01-20T01:38:57.636Z,99.90
2024-01-20T01:41:24.652Z,99.90
2024-01-20T01:43:51.679Z,99.90
2024-01-20T01:46:18.993Z,99.90
2024-01-20T01:48:46.476Z,99.90
2024-01-20T01:51:13.914Z,99.90
2024-01-20T01:53:41.993Z,99.90
2024-01-20T01:56:10.518Z,99.90
2024-01-20T01:58:37.584Z,99.90
2024-01-20T02:01:05.021Z,99.90
2024-01-20T02:03:32.545Z,99.90
2024-01-20T02:05:59.899Z,99.90
2024-01-20T02:08:28.241Z,99.90
2024-01-20T02:10:55.996Z,99.90
2024-01-20T02:13:23.346Z,98.80
2024-01-20T02:15:50.751Z,98.70
2024-01-20T02:18:18.027Z,99.00
2024-01-20T02:20:45.096Z,99.90
2024-01-20T02:23:12.032Z,99.90
2024-01-20T02:25:39.178Z,99.90
2024-01-20T02:28:06.314Z,99.90
2024-01-20T02:30:33.452Z,99.90
2024-01-20T02:33:00.714Z,99.60
2024-01-20T02:35:27.759Z,98.50
2024-01-20T02:37:54.711Z,98.70
2024-01-20T02:40:21.780Z,99.30
2024-01-20T02:42:49.068Z,99.90
2024-01-20T02:45:16.093Z,99.90
2024-01-20T02:47:43.704Z,99.90
2024-01-20T02:50:11.318Z,99.90
2024-01-20T02:52:38.474Z,99.90
2024-01-20T02:55:05.844Z,99.90
2024-01-20T02:57:32.952Z,99.90
2024-01-20T03:00:00.402Z,99.90
2024-01-20T03:02:27.430Z,99.90
2024-01-20T03:04:54.469Z,99.90
2024-01-20T03:07:21.487Z,99.90
2024-01-20T03:09:48.968Z,99.90
2024-01-20T03:12:16.062Z,99.90
2024-01-20T03:14:43.055Z,99.90
2024-01-20T03:17:10.286Z,99.90
2024-01-20T03:19:37.351Z,99.90
2024-01-20T03:22:04.507Z,99.90
2024-01-20T03:24:31.613Z,99.90
2024-01-20T03:26:59.807Z,99.90
2024-01-20T03:29:27.155Z,99.90
2024-01-20T03:31:54.146Z,99.90
2024-01-20T03:34:21.877Z,99.60
2024-01-20T03:36:49.130Z,99.80
2024-01-20T03:39:16.969Z,99.70
2024-01-20T03:41:44.812Z,98.80
2024-01-20T03:44:11.721Z,98.80
2024-01-20T03:46:38.829Z,99.20
2024-01-20T03:49:06.216Z,99.90
2024-01-20T03:51:33.377Z,99.90
2024-01-20T03:54:02.896Z,99.90
2024-01-20T03:56:30.105Z,99.90
2024-01-20T03:58:57.022Z,99.90
2024-01-20T04:01:25.528Z,99.90
2024-01-20T04:03:52.989Z,99.90
2024-01-20T04:06:20.137Z,99.90
2024-01-20T04:08:47.188Z,99.90
2024-01-20T04:11:16.752Z,99.90
2024-01-20T04:13:44.472Z,99.90
2024-01-20T04:16:11.668Z,99.90
2024-01-20T04:18:38.794Z,99.90
2024-01-20T04:21:06.377Z,99.90
2024-01-20T04:23:33.342Z,99.40
2024-01-20T04:26:00.282Z,98.80
2024-01-20T04:28:27.305Z,99.90
2024-01-20T04:30:54.420Z,99.90
2024-01-20T04:33:21.521Z,99.90
2024-01-20T04:35:48.639Z,99.90
2024-01-20T04:38:15.874Z,99.90
2024-01-20T04:40:42.931Z,99.90
2024-01-20T04:43:09.856Z,99.90
2024-01-20T04:45:36.898Z,99.60
2024-01-20T04:48:04.623Z,99.30
2024-01-20T04:50:31.731Z,99.60
2024-01-20T04:52:58.819Z,99.90
2024-01-20T04:55:25.858Z,99.90
2024-01-20T04:57:52.799Z,99.90
2024-01-20T05:00:19.937Z,99.90
2024-01-20T05:02:47.410Z,99.90
2024-01-20T05:05:14.524Z,99.90
2024-01-20T05:07:41.611Z,99.90
2024-01-20T05:10:08.994Z,99.90
2024-01-20T05:12:36.035Z,99.90
2024-01-20T05:15:03.200Z,99.90
2024-01-20T05:17:30.451Z,99.90
2024-01-20T05:19:57.583Z,99.90
2024-01-20T05:22:24.567Z,99.90
2024-01-20T05:24:51.489Z,99.90
2024-01-20T05:27:18.545Z,99.90
2024-01-20T05:29:45.551Z,99.90
2024-01-20T05:32:12.660Z,99.90
2024-01-20T05:34:39.878Z,99.90
2024-01-20T05:37:07.059Z,99.90
2024-01-20T05:39:35.138Z,99.90
2024-01-20T05:42:02.169Z,99.90
2024-01-20T05:44:29.527Z,99.90
2024-01-20T05:46:56.613Z,99.90
2024-01-20T05:49:23.856Z,99.90
2024-01-20T05:51:50.949Z,99.90
2024-01-20T05:54:17.984Z,99.90
2024-01-20T05:56:44.942Z,99.90
2024-01-20T05:59:12.565Z,99.90
2024-01-20T06:01:39.687Z,99.90
2024-01-20T06:04:06.990Z,99.90
2024-01-20T06:06:34.014Z,99.90
2024-01-20T06:09:01.094Z,99.90
2024-01-20T06:11:28.211Z,99.90
2024-01-20T06:13:55.225Z,99.90
2024-01-20T06:16:22.267Z,99.50
2024-01-20T06:18:49.402Z,98.10
2024-01-20T06:21:25.322Z,98.00
2024-01-20T06:23:52.427Z,98.70
2024-01-20T06:26:19.563Z,99.70
2024-01-20T06:28:46.622Z,99.90
2024-01-20T06:31:27.286Z,99.90
2024-01-20T06:33:55.366Z,99.90
2024-01-20T06:36:26.125Z,99.90
2024-01-20T06:38:53.602Z,99.90
2024-01-20T06:41:21.115Z,99.90
2024-01-20T06:43:48.349Z,99.90
2024-01-20T06:46:15.488Z,99.90
2024-01-20T06:48:42.623Z,99.90
2024-01-20T06:51:16.140Z,99.50
2024-01-20T06:53:46.291Z,99.20
2024-01-20T06:56:13.310Z,99.70
2024-01-20T06:58:40.414Z,99.90
2024-01-20T07:01:07.609Z,99.90
2024-01-20T07:03:34.696Z,99.90
2024-01-20T07:06:02.140Z,99.90
2024-01-20T07:08:29.434Z,99.90
2024-01-20T07:10:56.405Z,99.90
2024-01-20T07:13:23.347Z,99.90
2024-01-20T07:15:50.386Z,99.90
2024-01-20T07:18:17.479Z,99.80
2024-01-20T07:20:45.915Z,99.60
2024-01-20T07:23:12.887Z,99.80
2024-01-20T07:25:40.697Z,99.60
2024-01-20T07:28:08.003Z,99.70
2024-01-20T07:30:35.303Z,99.90
2024-01-20T07:33:02.657Z,99.70
2024-01-20T07:35:29.769Z,99.70
2024-01-20T07:38:00.432Z,99.90
2024-01-20T07:40:27.439Z,99.60
2024-01-20T07:42:54.380Z,99.60
2024-01-20T07:45:21.543Z,99.50
2024-01-20T07:47:48.898Z,99.60
2024-01-20T07:50:16.034Z,99.40
2024-01-20T07:52:43.041Z,99.40
2024-01-20T07:55:10.230Z,99.30
2024-01-20T07:57:38.077Z,99.30
2024-01-20T08:00:06.138Z,99.30
2024-01-20T08:02:35.496Z,99.20
2024-01-20T08:05:02.876Z,99.10
2024-01-20T08:07:29.865Z,99.00
2024-01-20T08:09:56.957Z,98.90
2024-01-20T08:12:24.043Z,98.90
2024-01-20T08:14:51.055Z,98.90
2024-01-20T08:17:18.537Z,98.80
2024-01-20T08:19:46.736Z,98.80
2024-01-20T08:22:14.783Z,98.70
2024-01-20T08:24:42.061Z,98.60
2024-01-20T08:27:09.168Z,98.60
2024-01-20T08:29:37.187Z,98.30
2024-01-20T08:32:04.514Z,98.30
2024-01-20T08:34:31.901Z,98.30
2024-01-20T08:36:59.081Z,98.20
2024-01-20T08:39:26.133Z,98.20
2024-01-20T08:41:53.888Z,98.10
2024-01-20T08:44:20.888Z,98.10
2024-01-20T08:46:48.952Z,98.00
2024-01-20T08:49:16.266Z,98.20
2024-01-20T08:51:43.273Z,98.00
2024-01-20T08:54:10.624Z,98.00
2024-01-20T08:56:37.532Z,98.00
2024-01-20T08:59:04.484Z,97.90
2024-01-20T09:01:31.567Z,97.80
2024-01-20T09:03:58.779Z,97.70
2024-01-20T09:06:25.842Z,97.60
2024-01-20T09:08:52.832Z,97.40
2024-01-20T09:11:20.476Z,96.80
2024-01-20T09:13:48.015Z,97.10
2024-01-20T09:16:15.239Z,97.00
2024-01-20T09:18:42.939Z,97.00
2024-01-20T09:21:12.973Z,96.90
2024-01-20T09:23:40.253Z,96.90
2024-01-20T09:26:07.193Z,96.80
2024-01-20T09:28:34.099Z,96.80
2024-01-20T09:31:01.121Z,96.80
2024-01-20T09:33:28.205Z,96.50
2024-01-20T09:35:55.255Z,96.10
2024-01-20T09:38:22.339Z,95.90
2024-01-20T09:40:49.360Z,95.80
2024-01-20T09:43:16.573Z,95.20
2024-01-20T09:45:43.782Z,88.40
2024-01-20T09:48:11.093Z,76.80
2024-01-20T09:50:38.284Z,72.20
2024-01-20T09:53:17.079Z,61.70
2024-01-20T09:55:45.868Z,58.80
2024-01-20T09:58:14.034Z,61.60
2024-01-20T10:00:42.966Z,66.10
2024-01-20T10:03:12.533Z,73.30
2024-01-20T10:05:40.045Z,77.50
2024-01-20T10:08:07.602Z,78.20
2024-01-20T10:10:35.215Z,77.70
2024-01-20T10:13:02.559Z,71.60
2024-01-20T10:15:34.286Z,72.20
2024-01-20T10:18:10.443Z,74.80
2024-01-20T10:20:38.302Z,77.30
2024-01-20T10:23:07.487Z,80.90
2024-01-20T10:25:34.704Z,81.40
2024-01-20T10:28:01.750Z,85.00
2024-01-20T10:30:30.410Z,84.80
2024-01-20T10:33:08.770Z,85.40
2024-01-20T10:35:38.567Z,86.50
2024-01-20T10:38:12.011Z,86.50
2024-01-20T10:40:42.428Z,87.20
2024-01-20T10:43:17.177Z,84.80
2024-01-20T10:46:09.961Z,83.40
2024-01-20T10:48:42.564Z,83.60
2024-01-20T10:51:12.777Z,82.60
2024-01-20T10:53:40.639Z,84.70
2024-01-20T10:56:09.505Z,83.10
2024-01-20T10:58:47.673Z,81.90
2024-01-20T11:01:15.216Z,81.80
2024-01-20T11:03:43.038Z,82.30
2024-01-20T11:06:24.404Z,82.20
2024-01-20T11:08:52.747Z,81.70
2024-01-20T11:11:28.763Z,81.20
2024-01-20T11:14:03.032Z,81.00
2024-01-20T11:16:34.406Z,83.10
2024-01-20T11:19:08.564Z,82.70
2024-01-20T11:21:35.766Z,81.30
2024-01-20T11:24:03.094Z,81.10
2024-01-20T11:26:34.808Z,81.50
2024-01-20T11:29:04.602Z,81.80
2024-01-20T11:31:32.514Z,81.00
2024-01-20T11:34:04.270Z,81.20
2024-01-20T11:36:32.632Z,81.40
2024-01-20T11:39:04.835Z,81.10
2024-01-20T11:41:31.937Z,81.00
2024-01-20T11:43:58.887Z,80.60
2024-01-20T11:46:26.044Z,80.80
2024-01-20T11:48:54.241Z,78.90
2024-01-20T11:51:22.210Z,79.90
2024-01-20T11:53:49.510Z,79.70
2024-01-20T11:56:17.406Z,81.70
2024-01-20T11:58:44.423Z,80.10
2024-01-20T12:01:12.012Z,80.50
2024-01-20T12:03:39.238Z,81.30
2024-01-20T12:06:10.457Z,78.30
2024-01-20T12:08:42.217Z,81.70
2024-01-20T12:11:19.081Z,81.30
2024-01-20T12:13:49.657Z,80.50
2024-01-20T12:16:18.000Z,80.70
2024-01-20T12:18:45.321Z,80.50
2024-01-20T12:21:12.383Z,80.50
2024-01-20T12:23:39.664Z,79.70
2024-01-20T12:26:14.839Z,78.20
2024-01-20T12:28:46.580Z,80.00
2024-01-20T12:31:16.368Z,79.30
2024-01-20T12:33:45.254Z,79.10
2024-01-20T12:36:12.623Z,78.30
2024-01-20T12:38:39.639Z,78.80
2024-01-20T12:41:06.603Z,78.80
2024-01-20T12:43:33.601Z,80.40
2024-01-20T12:46:00.590Z,79.10
2024-01-20T12:48:28.206Z,78.30
2024-01-20T12:50:55.439Z,77.90
2024-01-20T12:53:22.870Z,77.80
2024-01-20T12:55:50.074Z,77.40
2024-01-20T12:58:17.018Z,75.40
2024-01-20T13:00:44.111Z,77.20
2024-01-20T13:03:11.223Z,76.00
2024-01-20T13:05:38.406Z,76.60
2024-01-20T13:08:05.833Z,75.90
2024-01-20T13:10:32.948Z,76.80
2024-01-20T13:12:59.953Z,74.70
2024-01-20T13:15:27.380Z,72.10
2024-01-20T13:17:54.682Z,70.50
2024-01-20T13:20:21.633Z,71.50
2024-01-20T13:22:48.952Z,73.70
2024-01-20T13:25:15.992Z,73.00
2024-01-20T13:27:43.124Z,72.70
2024-01-20T13:30:10.796Z,73.10
2024-01-20T13:32:37.935Z,72.30
2024-01-20T13:35:05.569Z,72.00
2024-01-20T13:37:32.591Z,72.50
2024-01-20T13:40:06.284Z,72.20
2024-01-20T13:42:33.405Z,72.50
2024-01-20T13:45:00.548Z,72.90
2024-01-20T13:47:28.669Z,72.80
2024-01-20T13:49:56.163Z,73.60
2024-01-20T13:52:23.205Z,74.40
2024-01-20T13:54:50.711Z,72.20
2024-01-20T13:57:18.383Z,73.10
2024-01-20T13:59:45.599Z,73.40
2024-01-20T14:02:12.580Z,74.90
2024-01-20T14:04:40.589Z,76.10
2024-01-20T14:07:10.034Z,75.90
2024-01-20T14:09:37.126Z,74.60
2024-01-20T14:12:04.622Z,75.40
2024-01-20T14:14:31.632Z,75.70
2024-01-20T14:17:01.041Z,75.60
2024-01-20T14:19:29.059Z,76.00
2024-01-20T14:21:56.540Z,76.50
2024-01-20T14:24:23.721Z,76.40
2024-01-20T14:26:51.006Z,76.40
2024-01-20T14:29:18.082Z,76.50
2024-01-20T14:31:49.819Z,76.40
2024-01-20T14:34:17.783Z,77.90
2024-01-20T14:36:48.978Z,78.00
2024-01-20T14:39:19.557Z,77.40
2024-01-20T14:41:47.208Z,79.70
2024-01-20T14:44:14.563Z,80.50
2024-01-20T14:46:42.360Z,80.90
2024-01-20T14:49:09.600Z,82.10
2024-01-20T14:51:36.877Z,82.00
2024-01-20T14:54:06.961Z,82.50
2024-01-20T14:56:37.200Z,82.90
2024-01-20T14:59:04.628Z,82.70
2024-01-20T15:01:32.487Z,82.10
2024-01-20T15:03:59.625Z,81.90
2024-01-20T15:06:27.887Z,81.80
2024-01-20T15:08:55.017Z,83.10
2024-01-20T15:11:22.345Z,82.70
2024-01-20T15:13:49.290Z,83.00
2024-01-20T15:16:17.532Z,83.60
2024-01-20T15:18:44.655Z,85.30
2024-01-20T15:21:11.795Z,85.20
2024-01-20T15:23:39.321Z,85.30
2024-01-20T15:26:07.434Z,85.40
2024-01-20T15:28:34.514Z,85.80
2024-01-20T15:31:01.558Z,86.30
2024-01-20T15:33:28.690Z,86.90
2024-01-20T15:35:55.790Z,87.40
2024-01-20T15:38:22.747Z,88.20
2024-01-20T15:40:50.297Z,88.80
2024-01-20T15:43:17.367Z,89.20
2024-01-20T15:45:44.627Z,91.30
2024-01-20T15:48:13.090Z,92.00
2024-01-20T15:50:40.350Z,92.40
2024-01-20T15:53:07.404Z,92.50
2024-01-20T15:55:34.435Z,92.40
2024-01-20T15:58:01.413Z,92.10
2024-01-20T16:00:28.437Z,91.90
2024-01-20T16:02:55.597Z,90.40
2024-01-20T16:05:22.722Z,90.30
2024-01-20T16:07:49.900Z,90.40
2024-01-20T16:10:16.872Z,91.80
2024-01-20T16:12:43.901Z,92.50
2024-01-20T16:15:12.797Z,92.90
2024-01-20T16:17:42.080Z,93.20
2024-01-20T16:20:10.021Z,93.20
2024-01-20T16:22:37.149Z,92.90
2024-01-20T16:25:04.392Z,93.30
2024-01-20T16:27:31.382Z,93.80
2024-01-20T16:29:58.377Z,94.30
2024-01-20T16:32:25.624Z,94.40
2024-01-20T16:34:54.014Z,93.90
2024-01-20T16:37:21.167Z,94.20
2024-01-20T16:39:49.136Z,94.20
2024-01-20T16:42:16.225Z,93.90
2024-01-20T16:44:43.860Z,93.40
2024-01-20T16:47:11.007Z,93.90
2024-01-20T16:49:38.273Z,94.80
2024-01-20T16:52:07.382Z,94.90
2024-01-20T16:54:34.621Z,95.10
2024-01-20T16:57:02.209Z,95.50
2024-01-20T16:59:30.586Z,96.00
2024-01-20T17:01:58.725Z,93.90
2024-01-20T17:04:26.192Z,93.60
2024-01-20T17:06:53.524Z,94.60
2024-01-20T17:09:20.559Z,95.50
2024-01-20T17:11:47.698Z,95.40
2024-01-20T17:14:18.985Z,96.10
2024-01-20T17:16:49.247Z,96.90
2024-01-20T17:19:16.352Z,96.00
2024-01-20T17:21:43.435Z,95.40
2024-01-20T17:24:10.716Z,96.60
2024-01-20T17:26:37.795Z,97.10
2024-01-20T17:29:04.821Z,97.40
2024-01-20T17:31:35.055Z,97.50
2024-01-20T17:34:04.287Z,97.10
2024-01-20T17:36:31.528Z,97.90
2024-01-20T17:38:59.370Z,98.00
2024-01-20T17:41:26.341Z,98.30
2024-01-20T17:43:53.278Z,98.00
2024-01-20T17:46:20.463Z,97.40
2024-01-20T17:48:47.554Z,97.20
2024-01-20T17:51:14.594Z,96.90
2024-01-20T17:53:41.621Z,97.40
2024-01-20T17:56:08.567Z,97.80
2024-01-20T17:58:35.539Z,97.40
2024-01-20T18:01:02.818Z,96.10
2024-01-20T18:03:30.034Z,97.50
2024-01-20T18:05:57.364Z,97.30
2024-01-20T18:08:25.511Z,97.60
2024-01-20T18:10:52.636Z,97.80
2024-01-20T18:13:19.845Z,98.10
2024-01-20T18:15:47.003Z,97.60
2024-01-20T18:18:14.467Z,97.50
2024-01-20T18:20:41.631Z,98.30
2024-01-20T18:23:08.707Z,98.10
2024-01-20T18:25:36.512Z,98.10
2024-01-20T18:28:06.067Z,97.50
2024-01-20T18:30:34.460Z,97.30
2024-01-20T18:33:01.794Z,97.20
2024-01-20T18:35:29.172Z,98.40
2024-01-20T18:37:56.195Z,98.20
2024-01-20T18:40:23.238Z,98.40
2024-01-20T18:42:51.121Z,99.70
2024-01-20T18:45:19.130Z,99.90
2024-01-20T18:47:47.131Z,99.30
2024-01-20T18:50:15.087Z,98.70
2024-01-20T18:52:42.051Z,98.40
2024-01-20T18:55:09.837Z,98.00
2024-01-20T18:57:36.950Z,98.90
2024-01-20T19:00:05.378Z,98.80
2024-01-20T19:02:32.868Z,98.00
2024-01-20T19:05:00.051Z,98.20
2024-01-20T19:07:27.046Z,98.20
2024-01-20T19:09:54.162Z,98.20
2024-01-20T19:12:21.371Z,98.20
2024-01-20T19:14:51.506Z,98.90
2024-01-20T19:17:18.475Z,99.10
2024-01-20T19:19:45.842Z,98.80
2024-01-20T19:22:13.268Z,98.80
2024-01-20T19:24:40.442Z,98.70
2024-01-20T19:27:10.935Z,98.70
2024-01-20T19:29:38.088Z,98.40
2024-01-20T19:32:05.334Z,97.80
2024-01-20T19:34:32.426Z,98.40
2024-01-20T19:36:59.562Z,98.70
2024-01-20T19:39:26.601Z,98.50
2024-01-20T19:41:53.795Z,98.10
2024-01-20T19:44:21.430Z,98.60
2024-01-20T19:46:48.688Z,99.00
2024-01-20T19:49:16.107Z,99.10
2024-01-20T19:51:43.593Z,99.00
2024-01-20T19:54:12.715Z,99.00
2024-01-20T19:56:46.777Z,98.80
2024-01-20T19:59:15.136Z,99.30
2024-01-20T20:01:45.968Z,99.50
2024-01-20T20:04:17.134Z,99.80
2024-01-20T20:06:46.187Z,99.60
2024-01-20T20:09:17.593Z,99.90
2024-01-20T20:11:44.586Z,98.70
2024-01-20T20:14:12.871Z,98.70
2024-01-20T20:16:41.278Z,98.60
2024-01-20T20:19:09.324Z,98.90
2024-01-20T20:21:36.547Z,99.00
2024-01-20T20:24:03.651Z,97.70
2024-01-20T20:26:31.529Z,98.20
2024-01-20T20:28:58.609Z,97.70
2024-01-20T20:31:28.148Z,96.90
2024-01-20T20:33:55.340Z,97.60
2024-01-20T20:36:22.736Z,98.10
2024-01-20T20:38:49.848Z,98.50
2024-01-20T20:41:16.781Z,99.20
2024-01-20T20:43:43.723Z,99.90
2024-01-20T20:46:10.797Z,99.90
2024-01-20T20:48:37.811Z,99.90
2024-01-20T20:51:05.289Z,99.90
2024-01-20T20:53:32.362Z,99.90
2024-01-20T20:55:59.483Z,98.50
2024-01-20T20:58:26.624Z,98.30
2024-01-20T21:00:53.854Z,98.60
2024-01-20T21:03:22.254Z,98.70
2024-01-20T21:05:49.464Z,98.70
2024-01-20T21:08:16.858Z,98.20
2024-01-20T21:10:45.079Z,98.60
2024-01-20T21:13:12.990Z,99.20
2024-01-20T21:15:41.782Z,99.20
2024-01-20T21:18:09.438Z,99.80
2024-01-20T21:20:36.556Z,99.40
2024-01-20T21:23:04.690Z,97.90
2024-01-20T21:25:31.756Z,98.10
2024-01-20T21:27:58.812Z,99.50
2024-01-20T21:30:28.248Z,99.70
2024-01-20T21:32:55.629Z,99.70
2024-01-20T21:35:23.045Z,99.90
2024-01-20T21:37:50.269Z,99.90
2024-01-20T21:40:17.268Z,99.90
2024-01-20T21:42:44.310Z,99.90
2024-01-20T21:45:11.551Z,99.90
2024-01-20T21:47:38.637Z,99.90
2024-01-20T21:50:07.470Z,99.30
2024-01-20T21:52:34.810Z,98.80
2024-01-20T21:55:03.054Z,98.80
2024-01-20T21:57:30.245Z,99.20
2024-01-20T21:59:58.986Z,99.90
2024-01-20T22:02:28.616Z,99.90
2024-01-20T22:04:55.847Z,99.90
2024-01-20T22:07:23.435Z,99.90
2024-01-20T22:09:50.627Z,99.90
2024-01-20T22:12:17.745Z,99.90
2024-01-20T22:14:44.816Z,99.20
2024-01-20T22:17:11.830Z,98.20
2024-01-20T22:19:39.542Z,98.60
2024-01-20T22:22:06.629Z,99.50
2024-01-20T22:24:33.684Z,99.60
2024-01-20T22:27:00.644Z,99.50
2024-01-20T22:29:31.343Z,99.20
2024-01-20T22:31:59.309Z,99.40
2024-01-20T22:34:31.398Z,99.80
2024-01-20T22:36:59.995Z,99.70
2024-01-20T22:39:28.079Z,99.70
2024-01-20T22:41:55.517Z,99.90
2024-01-20T22:44:22.518Z,99.70
2024-01-20T22:46:50.692Z,99.90
2024-01-20T22:49:17.815Z,99.90
2024-01-20T22:51:45.027Z,99.90
2024-01-20T22:54:14.890Z,99.90
2024-01-20T22:56:42.091Z,99.80
2024-01-20T22:59:09.060Z,99.90
2024-01-20T23:01:36.206Z,99.90
2024-01-20T23:04:03.233Z,99.90
2024-01-20T23:06:31.180Z,99.90
2024-01-20T23:08:58.167Z,99.90
2024-01-20T23:11:25.073Z,99.90
2024-01-20T23:13:52.207Z,99.90
2024-01-20T23:16:19.333Z,99.90
2024-01-20T23:18:46.410Z,99.90
2024-01-20T23:21:13.708Z,99.90
2024-01-20T23:23:40.889Z,99.70
2024-01-20T23:26:07.808Z,99.90
2024-01-20T23:28:34.782Z,99.50
2024-01-20T23:31:01.848Z,99.70
2024-01-20T23:33:28.910Z,99.90
2024-01-20T23:35:55.991Z,99.90
2024-01-20T23:38:22.952Z,99.90
2024-01-20T23:40:49.989Z,99.90
2024-01-20T23:43:16.974Z,99.90
2024-01-20T23:45:46.755Z,99.30
2024-01-20T23:48:13.781Z,98.80
2024-01-20T23:50:43.436Z,99.10
2024-01-20T23:53:10.881Z,99.50
2024-01-20T23:55:37.891Z,99.90
2024-01-20T23:58:04.930Z,99.90
